Time;durP1;ratioP1;P1;durP2;ratioP2;P2;SDS_P1;SDS_P2;PMS_P1;PMS_P2;Temp;Humidity;BMP_temperature;BMP_pressure;BME280_temperature;BME280_humidity;BME280_pressure;Samples;Min_cycle;Max_cycle;Signal;HPM_P1;HPM_P2
2022/07/23 00:01:07;;;;;;;8.43;7.50;;;;;;;24.37;60.10;100698.47;5054515;28;20025;-59
2022/07/23 00:03:32;;;;;;;7.43;6.72;;;;;;;24.33;60.17;100695.13;5054677;28;20040;-58
2022/07/23 00:05:58;;;;;;;8.82;7.03;;;;;;;24.29;60.28;100709.75;5054351;28;20112;-58
2022/07/23 00:08:23;;;;;;;8.20;6.53;;;;;;;24.20;60.46;100699.72;5053106;28;20043;-58
2022/07/23 00:10:49;;;;;;;7.97;7.18;;;;;;;24.16;60.54;100700.06;5069618;28;20040;-58
2022/07/23 00:13:15;;;;;;;8.10;6.60;;;;;;;24.09;60.73;100711.22;5053015;28;20427;-58
2022/07/23 00:15:40;;;;;;;8.18;7.38;;;;;;;24.02;61.24;100701.06;5054046;28;20104;-59
2022/07/23 00:18:06;;;;;;;10.27;7.97;;;;;;;24.05;61.07;100695.47;5052920;28;20039;-59
2022/07/23 00:20:31;;;;;;;8.75;6.72;;;;;;;24.03;61.21;100694.72;5054091;28;20037;-58
2022/07/23 00:22:57;;;;;;;8.07;6.57;;;;;;;23.96;61.32;100693.47;5053979;28;20033;-58
2022/07/23 00:25:23;;;;;;;7.88;6.82;;;;;;;23.95;61.17;100695.28;5054133;28;20045;-59
2022/07/23 00:27:48;;;;;;;7.88;6.50;;;;;;;23.85;61.34;100688.84;5054051;28;20032;-59
2022/07/23 00:30:14;;;;;;;7.60;6.15;;;;;;;23.80;61.30;100688.34;5053992;28;20033;-59
2022/07/23 00:32:57;;;;;;;7.30;6.25;;;;;;;23.79;61.55;100692.00;5053950;28;20069;-57
2022/07/23 00:35:24;;;;;;;6.80;5.88;;;;;;;23.81;61.35;100690.91;5053090;28;20088;-58
2022/07/23 00:37:50;;;;;;;5.90;5.25;;;;;;;23.80;61.27;100693.72;5052755;28;20539;-58
2022/07/23 00:40:16;;;;;;;8.05;6.68;;;;;;;23.80;61.27;100685.66;5053868;28;20044;-60
2022/07/23 00:42:42;;;;;;;6.93;6.20;;;;;;;23.77;61.33;100694.78;5054232;28;20024;-58
2022/07/23 00:45:08;;;;;;;6.60;5.90;;;;;;;23.73;61.72;100708.53;5069728;28;20135;-58
2022/07/23 00:47:34;;;;;;;6.22;5.45;;;;;;;23.69;61.54;100702.50;5086370;28;20520;-58
2022/07/23 00:49:59;;;;;;;5.88;5.28;;;;;;;23.82;61.22;100703.38;5085829;28;20437;-58
2022/07/23 00:52:25;;;;;;;7.15;5.63;;;;;;;24.01;60.86;100715.44;5053178;28;20461;-58
2022/07/23 00:54:51;;;;;;;5.90;5.30;;;;;;;24.16;60.30;100703.59;5052127;28;20033;-59
2022/07/23 00:57:17;;;;;;;7.13;5.60;;;;;;;24.32;60.12;100703.31;5052125;28;20032;-59
2022/07/23 00:59:43;;;;;;;7.45;5.57;;;;;;;24.44;59.49;100707.81;5052420;28;20086;-58
2022/07/23 01:02:09;;;;;;;6.93;5.93;;;;;;;24.57;59.27;100699.69;5053767;28;20041;-59
2022/07/23 01:04:34;;;;;;;7.00;6.07;;;;;;;24.57;59.23;100705.06;5053854;28;20541;-59
2022/07/23 01:07:00;;;;;;;6.68;5.97;;;;;;;24.49;59.39;100697.56;5053915;28;20040;-59
2022/07/23 01:09:26;;;;;;;7.85;6.32;;;;;;;24.37;59.73;100708.34;5052379;28;20542;-59
2022/07/23 01:11:55;;;;;;;6.95;5.82;;;;;;;24.26;59.70;100703.78;5051900;28;20547;-58
2022/07/23 01:14:21;;;;;;;8.52;7.40;;;;;;;24.23;60.01;100699.50;5053565;28;20486;-58
2022/07/23 01:16:48;;;;;;;7.13;5.80;;;;;;;24.10;60.40;100693.31;5052442;28;20033;-58
2022/07/23 01:19:14;;;;;;;7.60;6.50;;;;;;;24.05;60.66;100690.09;5052122;28;20464;-59
2022/07/23 01:21:43;;;;;;;7.88;6.40;;;;;;;24.04;60.73;100678.50;5051966;28;20404;-58
2022/07/23 01:24:10;;;;;;;7.85;6.55;;;;;;;23.99;60.62;100686.03;5052100;28;20040;-59
2022/07/23 01:26:36;;;;;;;6.40;5.78;;;;;;;23.97;60.76;100677.22;5069491;28;20419;-58
2022/07/23 01:29:02;;;;;;;7.85;6.10;;;;;;;23.94;60.83;100680.16;5068833;28;20468;-58
2022/07/23 01:31:28;;;;;;;6.13;5.53;;;;;;;23.89;60.97;100676.09;5052215;28;20025;-58
2022/07/23 01:33:53;;;;;;;6.35;5.75;;;;;;;23.90;61.08;100685.84;5085340;28;20055;-58
2022/07/23 01:36:19;;;;;;;7.47;6.68;;;;;;;23.94;60.84;100682.84;5053217;28;20362;-58
2022/07/23 01:38:44;;;;;;;8.93;6.45;;;;;;;23.96;60.73;100680.03;5053204;28;20029;-58
2022/07/23 01:41:09;;;;;;;6.78;5.70;;;;;;;23.97;60.96;100669.19;5068739;28;20079;-58
2022/07/23 01:43:35;;;;;;;6.50;5.85;;;;;;;23.98;60.96;100670.91;5053242;28;20045;-59
2022/07/23 01:46:00;;;;;;;7.55;5.88;;;;;;;24.02;60.77;100671.56;5052256;28;20111;-58
2022/07/23 01:48:26;;;;;;;7.05;6.35;;;;;;;24.06;60.61;100667.69;5053151;28;20037;-58
2022/07/23 01:50:51;;;;;;;7.18;6.03;;;;;;;24.08;60.35;100673.78;5052017;28;20072;-58
2022/07/23 01:53:17;;;;;;;6.13;5.50;;;;;;;24.02;60.46;100668.88;5085340;28;20040;-58
2022/07/23 01:55:42;;;;;;;6.68;5.65;;;;;;;23.90;60.87;100669.72;5053563;28;20120;-58
2022/07/23 01:58:08;;;;;;;6.70;6.05;;;;;;;23.78;61.12;100675.06;5053025;28;20120;-58
2022/07/23 02:00:34;;;;;;;8.07;5.63;;;;;;;23.74;61.48;100667.34;5052913;28;20435;-58
2022/07/23 02:03:00;;;;;;;6.22;5.35;;;;;;;23.66;61.60;100667.88;5054153;28;20029;-58
2022/07/23 02:05:25;;;;;;;7.82;6.07;;;;;;;23.64;61.80;100667.09;5056844;28;20040;-58
2022/07/23 02:07:51;;;;;;;8.82;6.30;;;;;;;23.62;61.93;100663.69;5056672;28;20378;-59
2022/07/23 02:10:17;;;;;;;7.75;6.32;;;;;;;23.65;61.75;100668.78;5056277;28;20059;-60
2022/07/23 02:12:42;;;;;;;8.32;6.35;;;;;;;23.67;61.87;100672.28;5056455;28;20110;-58
2022/07/23 02:15:08;;;;;;;7.20;6.18;;;;;;;23.65;61.70;100674.16;5055863;28;20039;-58
2022/07/23 02:17:34;;;;;;;6.93;6.10;;;;;;;23.52;62.46;100676.00;5055555;28;20036;-58
2022/07/23 02:19:59;;;;;;;8.57;6.53;;;;;;;23.51;62.39;100674.31;5055357;28;20362;-58
2022/07/23 02:22:25;;;;;;;7.78;5.75;;;;;;;23.50;62.18;100672.56;5056417;28;20447;-60
2022/07/23 02:24:50;;;;;;;6.68;5.95;;;;;;;23.52;62.13;100662.59;5056445;28;20366;-59
2022/07/23 02:27:16;;;;;;;6.97;6.10;;;;;;;23.49;62.42;100668.19;5056435;28;20075;-60
2022/07/23 02:29:41;;;;;;;7.47;6.38;;;;;;;23.33;63.05;100677.31;5088731;28;20116;-59
2022/07/23 02:32:07;;;;;;;8.43;6.90;;;;;;;23.22;63.16;100670.97;5056279;28;20366;-60
2022/07/23 02:34:32;;;;;;;7.70;6.82;;;;;;;23.10;63.55;100662.84;5056091;28;20057;-59
2022/07/23 02:36:57;;;;;;;9.65;7.60;;;;;;;22.91;64.37;100658.88;5056076;28;20036;-60
2022/07/23 02:39:23;;;;;;;7.30;6.30;;;;;;;22.91;64.26;100657.03;5056454;28;20059;-59
2022/07/23 02:41:48;;;;;;;8.27;6.70;;;;;;;22.92;64.13;100649.84;5056337;28;20086;-59
2022/07/23 02:44:14;;;;;;;7.40;6.10;;;;;;;22.95;63.95;100645.16;5056292;28;20025;-59
2022/07/23 02:46:39;;;;;;;7.03;6.22;;;;;;;23.02;63.83;100650.91;5055915;28;20119;-59
2022/07/23 02:49:04;;;;;;;8.43;6.97;;;;;;;23.07;63.63;100654.16;5054703;28;20033;-59
2022/07/23 02:51:30;;;;;;;9.23;6.97;;;;;;;23.16;63.65;100658.03;5055935;28;20078;-59
2022/07/23 02:53:56;;;;;;;7.13;6.40;;;;;;;23.11;63.60;100661.03;5054593;28;20480;-59
2022/07/23 02:56:21;;;;;;;9.90;7.93;;;;;;;22.96;64.04;100652.22;5056090;28;20044;-59
2022/07/23 02:58:47;;;;;;;9.55;7.32;;;;;;;22.98;64.22;100649.41;5056447;28;20041;-59
2022/07/23 03:01:12;;;;;;;8.45;7.43;;;;;;;22.96;64.10;100641.50;5055620;28;20032;-59
2022/07/23 03:03:38;;;;;;;7.93;7.13;;;;;;;23.02;63.90;100645.56;5055668;28;20086;-59
2022/07/23 03:06:03;;;;;;;8.95;7.20;;;;;;;22.92;64.16;100652.53;5055720;28;20430;-59
2022/07/23 03:08:29;;;;;;;8.88;7.93;;;;;;;22.88;64.44;100652.72;5054340;28;20385;-59
2022/07/23 03:10:54;;;;;;;9.05;8.00;;;;;;;22.94;64.19;100654.16;5054543;28;20111;-59
2022/07/23 03:13:20;;;;;;;9.15;7.03;;;;;;;23.08;63.77;100651.38;5055070;28;20041;-59
2022/07/23 03:15:48;;;;;;;9.90;8.27;;;;;;;23.00;64.08;100652.88;5055379;28;20116;-59
2022/07/23 03:18:14;;;;;;;9.40;7.65;;;;;;;23.04;63.67;100657.03;5054308;28;20154;-59
2022/07/23 03:20:39;;;;;;;8.13;7.32;;;;;;;23.15;63.38;100661.66;5055408;28;20025;-59
2022/07/23 03:23:04;;;;;;;8.60;6.82;;;;;;;23.33;63.13;100669.25;5054010;28;20037;-60
2022/07/23 03:25:30;;;;;;;9.85;8.20;;;;;;;23.47;62.45;100654.91;5055617;28;20044;-60
2022/07/23 03:27:55;;;;;;;9.95;7.63;;;;;;;23.66;62.13;100662.53;5054058;28;20118;-59
2022/07/23 03:30:21;;;;;;;7.95;6.78;;;;;;;23.82;61.32;100663.13;5054288;28;20167;-59
2022/07/23 03:32:47;;;;;;;11.68;9.10;;;;;;;23.91;61.10;100660.75;5053561;28;20083;-60
2022/07/23 03:35:12;;;;;;;9.68;7.55;;;;;;;23.82;61.33;100659.59;5070575;28;20033;-59
2022/07/23 03:37:38;;;;;;;7.85;6.93;;;;;;;23.76;61.49;100658.19;5054961;28;20041;-59
2022/07/23 03:40:04;;;;;;;8.50;7.60;;;;;;;23.76;61.40;100649.28;5055576;28;20036;-60
2022/07/23 03:42:29;;;;;;;9.85;7.22;;;;;;;23.85;61.11;100652.16;5053634;28;20037;-60
2022/07/23 03:44:54;;;;;;;7.85;6.70;;;;;;;23.98;60.81;100656.66;5054880;28;20068;-59
2022/07/23 03:47:21;;;;;;;8.00;7.03;;;;;;;24.14;60.46;100654.53;5054996;28;20037;-59
2022/07/23 03:49:48;;;;;;;9.88;7.10;;;;;;;24.31;59.99;100651.44;5053528;28;20048;-60
2022/07/23 03:52:14;;;;;;;8.88;7.30;;;;;;;24.44;59.70;100647.88;5036810;28;20415;-59
2022/07/23 03:54:42;;;;;;;8.98;8.07;;;;;;;24.29;60.09;100655.22;5070076;28;20083;-60
2022/07/23 03:57:07;;;;;;;8.35;6.57;;;;;;;24.38;59.50;100659.03;5054617;28;20044;-60
2022/07/23 03:59:32;;;;;;;10.13;7.50;;;;;;;24.34;59.77;100661.13;5054622;28;20033;-59
2022/07/23 04:01:58;;;;;;;9.05;7.65;;;;;;;23.97;60.45;100649.53;5054533;28;20029;-59
2022/07/23 04:04:23;;;;;;;7.90;7.00;;;;;;;23.78;61.14;100642.00;5053389;28;20094;-59
2022/07/23 04:06:49;;;;;;;8.50;6.38;;;;;;;23.81;61.08;100637.25;5054140;28;20041;-59
2022/07/23 04:09:14;;;;;;;9.18;6.05;;;;;;;24.01;60.51;100645.66;5054917;28;20041;-60
2022/07/23 04:11:39;;;;;;;7.68;6.28;;;;;;;24.16;60.11;100633.78;5054322;28;20068;-59
2022/07/23 04:14:05;;;;;;;9.07;6.88;;;;;;;24.30;59.64;100622.03;5086716;28;20103;-60
2022/07/23 04:16:31;;;;;;;8.45;6.10;;;;;;;24.41;59.20;100632.84;5086340;28;20036;-59
2022/07/23 04:18:57;;;;;;;7.32;6.63;;;;;;;24.53;58.93;100631.06;5054274;28;20082;-59
2022/07/23 04:21:23;;;;;;;5.82;5.32;;;;;;;24.53;58.77;100623.00;5052893;28;20033;-59
2022/07/23 04:23:48;;;;;;;7.43;5.97;;;;;;;24.53;58.69;100621.16;5086601;28;20134;-60
2022/07/23 04:26:14;;;;;;;6.38;5.65;;;;;;;24.55;58.64;100613.84;5086210;28;20425;-60
2022/07/23 04:28:41;;;;;;;9.20;7.25;;;;;;;24.70;58.36;100610.97;5054285;28;20119;-60
2022/07/23 04:31:07;;;;;;;6.70;5.75;;;;;;;24.82;58.20;100615.41;5052820;28;20041;-60
2022/07/23 04:33:32;;;;;;;7.32;5.97;;;;;;;24.97;57.76;100605.28;5086106;28;20060;-60
2022/07/23 04:35:58;;;;;;;6.97;6.28;;;;;;;25.12;57.41;100609.47;5086286;28;20033;-60
2022/07/23 04:38:23;;;;;;;6.43;5.22;;;;;;;25.24;56.88;100611.19;5054067;28;20032;-59
2022/07/23 04:40:49;;;;;;;6.18;5.07;;;;;;;25.38;56.59;100607.41;5053875;28;20083;-60
2022/07/23 04:43:14;;;;;;;6.97;5.68;;;;;;;25.46;56.34;100615.72;5053852;28;20025;-59
2022/07/23 04:45:39;;;;;;;8.05;5.07;;;;;;;25.50;56.08;100609.13;5053959;28;20025;-60
2022/07/23 04:48:05;;;;;;;6.82;5.65;;;;;;;25.43;56.29;100601.66;5053738;28;20037;-59
2022/07/23 04:50:30;;;;;;;6.63;5.70;;;;;;;25.43;56.29;100604.34;5086100;28;20041;-60
2022/07/23 04:52:56;;;;;;;6.60;4.90;;;;;;;25.40;56.32;100609.97;5053890;28;20033;-60
2022/07/23 04:55:21;;;;;;;6.88;4.72;;;;;;;25.37;56.39;100610.22;5052536;28;20074;-60
2022/07/23 04:57:46;;;;;;;6.22;5.00;;;;;;;25.39;56.14;100609.13;5053585;28;20036;-60
2022/07/23 05:00:12;;;;;;;5.90;4.78;;;;;;;25.44;55.92;100606.91;5053645;28;20036;-60
2022/07/23 05:02:38;;;;;;;5.63;4.57;;;;;;;25.50;55.82;100600.19;5053725;28;20044;-60
2022/07/23 05:05:03;;;;;;;6.70;4.95;;;;;;;25.58;55.53;100608.50;5053546;28;20111;-60
2022/07/23 05:07:29;;;;;;;6.35;4.85;;;;;;;25.63;55.39;100614.38;5053287;28;20059;-60
2022/07/23 05:09:54;;;;;;;5.10;4.30;;;;;;;25.88;54.95;100607.00;5053649;28;20132;-60
2022/07/23 05:12:19;;;;;;;6.05;4.30;;;;;;;26.25;54.08;100605.69;5053757;28;20048;-60
2022/07/23 05:14:45;;;;;;;5.38;3.88;;;;;;;26.54;53.21;100599.69;5053453;28;20033;-60
2022/07/23 05:17:10;;;;;;;5.10;3.78;;;;;;;26.75;52.62;100588.91;5085862;28;20036;-60
2022/07/23 05:19:36;;;;;;;4.50;3.67;;;;;;;26.74;52.41;100590.75;5053379;28;20067;-60
2022/07/23 05:22:02;;;;;;;4.70;3.88;;;;;;;26.66;52.51;100593.25;5052155;28;20041;-60
2022/07/23 05:24:27;;;;;;;5.43;3.67;;;;;;;26.49;52.81;100594.69;5052271;28;20029;-59
2022/07/23 05:26:53;;;;;;;4.47;4.07;;;;;;;26.45;52.87;100597.75;5051792;28;20048;-59
2022/07/23 05:29:18;;;;;;;6.68;3.80;;;;;;;26.32;53.16;100592.53;5052204;28;20037;-59
2022/07/23 05:31:44;;;;;;;6.18;4.38;;;;;;;26.27;53.27;100590.22;5053484;28;20033;-59
2022/07/23 05:34:09;;;;;;;6.00;4.90;;;;;;;26.19;53.54;100592.72;5053528;28;20053;-60
2022/07/23 05:36:35;;;;;;;5.13;4.40;;;;;;;26.16;53.83;100597.50;5053351;28;20041;-59
2022/07/23 05:39:00;;;;;;;5.68;5.00;;;;;;;26.15;53.74;100585.88;5057135;28;20052;-59
2022/07/23 05:41:25;;;;;;;4.45;4.05;;;;;;;26.25;53.53;100586.81;5056170;28;20029;-59
2022/07/23 05:43:51;;;;;;;6.65;4.38;;;;;;;26.39;53.28;100574.88;5057262;28;20037;-59
2022/07/23 05:46:16;;;;;;;4.72;4.22;;;;;;;26.77;52.38;100578.84;5057252;28;20396;-59
2022/07/23 05:48:42;;;;;;;6.10;3.92;;;;;;;27.23;51.17;100573.00;5057059;28;20387;-59
2022/07/23 05:51:08;;;;;;;7.28;4.38;;;;;;;27.45;50.84;100579.22;5057109;28;20082;-60
2022/07/23 05:53:35;;;;;;;4.10;3.65;;;;;;;27.76;50.01;100577.31;5039461;28;20075;-60
2022/07/23 05:56:01;;;;;;;5.97;3.67;;;;;;;27.96;49.59;100579.03;5055719;28;20072;-59
2022/07/23 05:58:26;;;;;;;4.75;4.10;;;;;;;28.11;49.09;100568.69;5055605;28;20028;-59
2022/07/23 06:00:52;;;;;;;5.40;4.90;;;;;;;28.05;49.36;100558.47;5057097;28;20033;-59
2022/07/23 06:03:18;;;;;;;4.75;4.25;;;;;;;28.10;49.07;100561.59;5056787;28;20447;-60
2022/07/23 06:05:43;;;;;;;4.75;4.03;;;;;;;28.32;48.65;100564.97;5056772;28;20029;-59
2022/07/23 06:08:08;;;;;;;5.93;4.72;;;;;;;28.49;48.31;100561.59;5055799;28;20040;-60
2022/07/23 06:10:34;;;;;;;5.22;4.72;;;;;;;28.42;48.46;100557.75;5055423;28;20392;-60
2022/07/23 06:12:59;;;;;;;5.00;4.45;;;;;;;28.00;49.17;100550.75;5056684;28;20120;-59
2022/07/23 06:15:24;;;;;;;4.65;4.05;;;;;;;27.92;49.36;100558.72;5056456;28;20419;-59
2022/07/23 06:17:50;;;;;;;5.22;4.32;;;;;;;27.95;49.17;100563.84;5056376;28;20123;-60
2022/07/23 06:20:15;;;;;;;4.57;4.18;;;;;;;28.01;49.21;100573.25;5056532;28;20086;-60
2022/07/23 06:22:41;;;;;;;4.35;3.42;;;;;;;28.17;48.76;100562.72;5056289;28;20036;-59
2022/07/23 06:25:07;;;;;;;5.55;5.05;;;;;;;28.63;47.60;100563.84;5056466;28;20457;-59
2022/07/23 06:27:32;;;;;;;6.28;5.50;;;;;;;28.95;47.20;100573.44;5055021;28;20183;-59
2022/07/23 06:29:58;;;;;;;4.10;3.70;;;;;;;29.09;46.74;100580.28;5056738;28;20045;-59
2022/07/23 06:32:23;;;;;;;4.32;3.63;;;;;;;29.20;46.48;100580.06;5088680;28;20041;-60
2022/07/23 06:34:48;;;;;;;4.90;4.20;;;;;;;29.25;46.27;100574.22;5056302;28;20099;-60
2022/07/23 06:37:14;;;;;;;4.68;4.05;;;;;;;29.30;46.13;100580.03;5056209;28;20434;-60
2022/07/23 06:39:39;;;;;;;5.38;4.88;;;;;;;29.05;46.43;100587.81;5056367;28;20079;-59
2022/07/23 06:42:05;;;;;;;5.20;4.68;;;;;;;28.80;46.95;100578.44;5056166;28;20029;-59
2022/07/23 06:44:30;;;;;;;6.55;5.53;;;;;;;28.66;47.08;100574.38;5056149;28;20135;-59
2022/07/23 06:46:56;;;;;;;4.10;3.70;;;;;;;28.33;47.88;100582.91;5054684;28;20064;-61
2022/07/23 06:49:21;;;;;;;4.63;4.10;;;;;;;28.51;47.61;100574.97;5054362;28;20468;-60
2022/07/23 06:51:46;;;;;;;5.05;4.43;;;;;;;28.77;47.02;100572.50;5055853;28;20029;-59
2022/07/23 06:54:12;;;;;;;4.25;3.47;;;;;;;29.06;46.55;100581.41;5055874;28;20468;-59
2022/07/23 06:56:37;;;;;;;6.07;4.38;;;;;;;29.17;46.42;100578.53;5054675;28;20043;-59
2022/07/23 06:59:03;;;;;;;4.45;3.97;;;;;;;29.28;46.33;100568.50;5071425;28;20357;-60
2022/07/23 07:01:28;;;;;;;5.97;4.60;;;;;;;29.49;45.70;100574.53;5054522;28;20424;-60
2022/07/23 07:03:54;;;;;;;4.32;3.92;;;;;;;29.64;45.28;100572.16;5055639;28;20464;-60
2022/07/23 07:06:20;;;;;;;5.22;4.72;;;;;;;29.67;45.35;100580.00;5055671;28;20124;-60
2022/07/23 07:08:45;;;;;;;5.07;4.57;;;;;;;29.70;45.31;100580.56;5055868;28;20384;-60
2022/07/23 07:11:10;;;;;;;3.80;3.40;;;;;;;29.74;45.03;100577.53;5055620;28;20124;-60
2022/07/23 07:13:37;;;;;;;4.85;4.35;;;;;;;29.70;45.37;100577.00;5087579;28;20466;-60
2022/07/23 07:16:03;;;;;;;4.30;3.90;;;;;;;29.77;44.80;100574.53;5054204;28;20487;-60
2022/07/23 07:18:28;;;;;;;5.13;4.63;;;;;;;29.81;44.65;100567.81;5054059;28;20033;-60
2022/07/23 07:20:54;;;;;;;6.65;5.35;;;;;;;29.39;45.02;100565.59;5055456;28;20040;-60
2022/07/23 07:23:20;;;;;;;4.97;4.47;;;;;;;29.29;45.36;100565.66;5055338;28;20039;-60
2022/07/23 07:25:46;;;;;;;5.10;4.60;;;;;;;29.41;45.13;100564.44;5055267;28;20033;-60
2022/07/23 07:28:12;;;;;;;6.22;5.03;;;;;;;29.37;45.18;100562.19;5037515;28;20127;-60
2022/07/23 07:30:37;;;;;;;4.90;4.40;;;;;;;29.26;45.57;100559.69;5055215;28;20115;-60
2022/07/23 07:33:03;;;;;;;6.20;5.35;;;;;;;29.50;45.03;100570.81;5053548;28;20480;-60
2022/07/23 07:35:28;;;;;;;5.75;5.20;;;;;;;29.64;44.51;100564.94;5055704;28;20033;-60
2022/07/23 07:37:54;;;;;;;6.57;5.88;;;;;;;29.41;44.73;100564.44;5055014;28;20488;-60
2022/07/23 07:40:22;;;;;;;5.30;4.80;;;;;;;29.29;45.36;100559.41;5055115;28;20380;-60
2022/07/23 07:42:49;;;;;;;5.93;5.32;;;;;;;29.30;45.33;100561.94;5053696;28;20033;-60
2022/07/23 07:45:15;;;;;;;5.95;5.35;;;;;;;29.56;44.72;100572.91;5053627;28;20032;-60
2022/07/23 07:47:43;;;;;;;5.18;4.65;;;;;;;29.63;44.51;100571.31;5053409;28;20036;-60
2022/07/23 07:50:09;;;;;;;5.03;4.53;;;;;;;29.93;44.08;100572.00;5055168;28;20060;-60
2022/07/23 07:52:36;;;;;;;6.03;4.53;;;;;;;30.21;43.35;100577.38;5037168;28;20392;-60
2022/07/23 07:55:06;;;;;;;5.88;5.32;;;;;;;30.29;43.21;100580.16;5070261;28;20442;-60
2022/07/23 07:57:31;;;;;;;6.78;5.78;;;;;;;30.12;43.65;100588.09;5054735;28;20499;-60
2022/07/23 07:59:57;;;;;;;5.28;4.60;;;;;;;30.09;43.68;100574.03;5086462;28;20116;-60
2022/07/23 08:02:23;;;;;;;5.80;5.20;;;;;;;30.24;43.17;100579.75;5054284;28;20374;-60
2022/07/23 08:04:48;;;;;;;6.00;5.00;;;;;;;30.18;43.51;100565.84;5054825;28;20046;-60
2022/07/23 08:07:14;;;;;;;6.07;4.63;;;;;;;30.39;42.94;100570.06;5054536;28;20127;-60
2022/07/23 08:09:40;;;;;;;6.38;5.72;;;;;;;30.29;43.13;100574.75;5053041;28;20139;-60
2022/07/23 08:12:05;;;;;;;5.93;5.13;;;;;;;30.09;43.58;100572.16;5054267;28;20041;-60
2022/07/23 08:14:31;;;;;;;5.30;4.80;;;;;;;30.45;42.79;100572.16;5053987;28;20083;-61
2022/07/23 08:16:56;;;;;;;6.35;5.68;;;;;;;30.38;43.09;100568.38;5053710;28;20445;-60
2022/07/23 08:19:22;;;;;;;6.50;5.90;;;;;;;29.91;43.83;100561.31;5086489;28;20099;-60
2022/07/23 08:21:47;;;;;;;6.65;5.68;;;;;;;29.15;44.75;100558.00;5052980;28;20037;-60
2022/07/23 08:24:12;;;;;;;5.70;5.20;;;;;;;28.99;45.49;100552.38;5054277;28;20124;-60
2022/07/23 08:26:38;;;;;;;5.50;4.88;;;;;;;29.64;44.06;100551.41;5054171;28;20112;-60
2022/07/23 08:29:03;;;;;;;5.60;5.07;;;;;;;30.31;42.83;100548.31;5054012;28;20071;-61
2022/07/23 08:31:29;;;;;;;6.22;4.97;;;;;;;30.80;41.82;100549.56;5052979;28;20369;-61
2022/07/23 08:33:54;;;;;;;5.60;5.10;;;;;;;30.32;42.68;100542.75;5053663;28;20136;-60
2022/07/23 08:36:20;;;;;;;5.10;4.60;;;;;;;30.72;41.94;100543.19;5085959;28;20033;-60
2022/07/23 08:38:47;;;;;;;5.88;5.28;;;;;;;30.90;41.19;100535.88;5053689;28;20053;-60
2022/07/23 08:41:12;;;;;;;6.15;5.55;;;;;;;31.13;40.53;100539.75;5053925;28;20029;-60
2022/07/23 08:43:38;;;;;;;6.22;5.40;;;;;;;31.32;40.63;100545.94;5054033;28;20084;-60
2022/07/23 08:46:04;;;;;;;4.93;4.43;;;;;;;31.67;40.19;100544.03;5086632;28;20033;-60
2022/07/23 08:48:36;;;;;;;5.20;4.70;;;;;;;31.78;39.92;100530.13;5053552;28;20087;-60
2022/07/23 08:51:03;;;;;;;5.55;5.05;;;;;;;31.93;39.74;100528.50;5052578;28;20032;-60
2022/07/23 08:53:30;;;;;;;6.78;5.68;;;;;;;32.17;38.99;100522.22;5052663;28;20028;-60
2022/07/23 08:55:58;;;;;;;6.60;5.95;;;;;;;32.34;38.91;100529.34;5052354;28;20483;-60
2022/07/23 08:58:25;;;;;;;5.95;5.35;;;;;;;32.26;38.56;100532.06;5053427;28;20032;-61
2022/07/23 09:00:50;;;;;;;5.97;5.47;;;;;;;32.13;38.99;100538.00;5086102;28;20028;-60
2022/07/23 09:03:20;;;;;;;6.90;6.20;;;;;;;31.38;39.97;100546.13;5052312;28;20427;-60
2022/07/23 09:05:48;;;;;;;6.70;6.00;;;;;;;31.19;40.75;100550.94;5068721;28;20423;-60
2022/07/23 09:08:16;;;;;;;5.63;5.03;;;;;;;31.27;40.38;100548.25;5068422;28;20036;-60
2022/07/23 09:10:49;;;;;;;6.65;5.95;;;;;;;31.38;39.94;100546.13;5052479;28;20056;-61
2022/07/23 09:13:33;;;;;;;6.80;6.10;;;;;;;31.58;39.65;100535.84;5051418;28;20044;-60
2022/07/23 09:16:27;;;;;;;6.70;5.35;;;;;;;31.57;39.97;100534.16;5052350;28;20412;-60
2022/07/23 09:19:06;;;;;;;7.75;6.32;;;;;;;31.39;40.11;100519.84;5052235;28;20075;-60
2022/07/23 09:21:37;;;;;;;5.60;5.10;;;;;;;31.32;40.20;100535.06;5052393;28;20064;-61
2022/07/23 09:24:11;;;;;;;7.05;6.25;;;;;;;31.61;40.03;100530.09;5052103;28;20473;-60
2022/07/23 09:26:38;;;;;;;6.18;5.57;;;;;;;31.52;40.01;100533.81;5085975;28;20071;-60
2022/07/23 09:29:17;;;;;;;5.85;5.22;;;;;;;31.55;39.54;100529.91;5052015;28;20116;-60
2022/07/23 09:31:52;;;;;;;6.20;5.57;;;;;;;31.19;40.92;100526.53;5051958;28;20114;-61
2022/07/23 09:34:35;;;;;;;6.40;5.78;;;;;;;30.98;40.83;100535.06;5051883;28;20401;-60
2022/07/23 09:37:15;;;;;;;6.70;5.57;;;;;;;30.90;40.83;100542.16;5052155;28;20041;-60
2022/07/23 09:39:42;;;;;;;6.75;5.93;;;;;;;30.58;42.10;100537.34;5053113;28;20058;-60
2022/07/23 09:42:21;;;;;;;6.90;5.90;;;;;;;30.47;41.66;100531.34;5051701;28;20039;-60
2022/07/23 09:44:49;;;;;;;8.20;5.45;;;;;;;30.56;41.69;100533.97;5051937;28;20061;-60
2022/07/23 09:47:15;;;;;;;6.68;5.82;;;;;;;30.20;42.18;100527.72;5051912;28;20087;-60
2022/07/23 09:50:04;;;;;;;7.15;6.45;;;;;;;30.28;41.70;100540.50;5051820;28;20060;-60
2022/07/23 09:52:32;;;;;;;6.95;6.25;;;;;;;30.21;41.93;100531.31;5051793;28;20032;-61
2022/07/23 09:55:04;;;;;;;8.85;6.53;;;;;;;30.15;41.25;100539.03;5051961;28;20465;-60
2022/07/23 09:57:33;;;;;;;6.63;5.72;;;;;;;30.25;42.02;100546.25;5053048;28;20021;-60
2022/07/23 10:00:10;;;;;;;6.30;5.70;;;;;;;30.21;41.90;100556.56;5068405;28;20033;-60
2022/07/23 10:02:36;;;;;;;6.53;5.88;;;;;;;30.44;41.79;100554.16;5051824;28;20128;-60
2022/07/23 10:05:03;;;;;;;7.85;6.30;;;;;;;30.31;42.00;100553.75;5035077;28;20032;-60
2022/07/23 10:07:33;;;;;;;8.13;6.82;;;;;;;30.26;41.41;100546.09;5068395;28;20510;-60
2022/07/23 10:10:00;;;;;;;6.95;6.25;;;;;;;30.48;40.80;100552.00;5051736;28;20167;-60
2022/07/23 10:15:11;;;;;;;6.45;5.47;;;;;;;30.25;41.16;100551.66;5031573;28;20045;-60
2022/07/23 10:17:37;;;;;;;6.90;5.97;;;;;;;29.98;41.82;100556.13;5051483;28;20101;-60
2022/07/23 10:20:04;;;;;;;6.15;5.50;;;;;;;29.94;42.11;100552.88;5052871;28;20126;-60
2022/07/23 10:22:50;;;;;;;6.57;5.55;;;;;;;29.87;42.07;100557.19;5053386;28;20035;-60
2022/07/23 10:25:54;;;;;;;6.53;5.53;;;;;;;29.80;41.83;100557.97;5055193;28;20104;-60
2022/07/23 10:28:41;;;;;;;5.95;5.10;;;;;;;29.83;41.81;100553.09;5056496;28;20033;-59
2022/07/23 10:31:24;;;;;;;8.25;5.22;;;;;;;29.48;41.88;100553.00;5055104;28;20032;-60
2022/07/23 10:34:08;;;;;;;6.60;5.13;;;;;;;29.62;42.40;100561.50;5054991;28;20056;-60
2022/07/23 10:36:50;;;;;;;7.90;5.85;;;;;;;29.64;42.28;100554.09;5055167;28;20103;-60
2022/07/23 10:39:28;;;;;;;8.27;5.95;;;;;;;29.56;41.98;100556.66;5055292;28;20437;-60
2022/07/23 10:42:11;;;;;;;8.18;5.53;;;;;;;29.56;42.63;100555.81;5054901;28;20036;-60
2022/07/23 10:44:46;;;;;;;6.38;5.38;;;;;;;29.51;43.00;100553.56;5055952;28;20129;-60
2022/07/23 10:50:23;;;;;;;5.75;5.25;;;;;;;29.54;43.88;100550.56;5055943;28;20082;-59
2022/07/23 10:53:08;;;;;;;7.25;5.82;;;;;;;29.40;44.50;100556.47;5054748;28;20057;-61
2022/07/23 10:55:33;;;;;;;6.55;5.85;;;;;;;29.10;44.83;100561.16;5054602;28;20037;-61
2022/07/23 10:57:59;;;;;;;6.25;5.53;;;;;;;29.01;45.27;100572.88;5055803;28;20036;-60
2022/07/23 11:00:29;;;;;;;6.75;5.80;;;;;;;28.86;46.71;100583.28;5054553;28;20045;-60
2022/07/23 11:03:00;;;;;;;6.40;5.72;;;;;;;28.27;48.10;100584.31;5037936;28;20139;-60
2022/07/23 11:05:41;;;;;;;6.10;4.93;;;;;;;27.83;48.89;100580.31;5054194;28;20036;-60
2022/07/23 11:08:07;;;;;;;6.28;4.55;;;;;;;27.64;48.87;100579.22;5054383;28;20032;-60
2022/07/23 11:10:43;;;;;;;6.57;4.82;;;;;;;27.50;50.31;100582.34;5054251;28;20082;-61
2022/07/23 11:13:24;;;;;;;6.53;5.20;;;;;;;27.03;52.72;100590.06;5054412;28;20037;-60
2022/07/23 11:16:01;;;;;;;5.85;5.22;;;;;;;26.61;53.97;100602.69;5055404;28;20112;-60
2022/07/23 11:18:39;;;;;;;9.48;5.55;;;;;;;26.53;53.97;100608.75;5054537;28;20033;-60
2022/07/23 11:21:23;;;;;;;7.10;4.80;;;;;;;26.26;55.40;100610.06;5055586;28;20037;-60
2022/07/23 11:24:08;;;;;;;7.32;5.10;;;;;;;26.16;54.97;100605.56;5055360;28;20027;-60
2022/07/23 11:26:41;;;;;;;5.05;4.60;;;;;;;26.34;54.79;100612.13;5054116;28;20039;-60
2022/07/23 11:29:28;;;;;;;5.28;4.78;;;;;;;26.39;55.87;100614.44;5054063;28;20029;-60
2022/07/23 11:31:57;;;;;;;8.30;5.20;;;;;;;26.38;54.41;100628.88;5055232;28;20379;-60